Impacts METAR Board
IDs:

KIAH - Houston/Bush Intl, TX, US

Updated at: 1600 UTC 03 Dec 2021
Potential Impact None Slight Moderate High
Time 03/04Z 03/05Z 03/06Z 03/07Z 03/08Z 03/09Z 03/10Z 03/11Z 03/12Z 03/13Z 03/14Z 03/15Z 03/16Z
Temp67 67 65 65 66 66 65 66 65 66 67 68 71
Dewpt63 63 62 62 63 64 63 63 63 63 64 66 65
Altim30.12 30.12 30.11 30.10 30.09 30.08 30.08 30.08 30.09 30.10 30.10 30.11 30.11
VIS10 10 6 5 3 5 4 5 4 5 7 10 10
CIG-- -- -- -- 14 18 18 23 31 38 20 200 13
CoverFEWFEWFEWFEWBKNOVCOVCBKNOVCBKNBKNBKNOVC
FltCatVFRVFRVFRMVFRMVFRMVFRMVFRMVFRMVFRMVFRMVFRVFRMVFR
WX----BRBRBRBRBRBRBRBR------
WDir170180170170170000170170160170160
WSpd4 3 3 3 4 0 0 0 3 3 5 6 6
WGst-- -- -- -- -- -- -- -- -- -- -- -- --
Raw hourly METARs
KIAH 030353Z 17004KT 10SM FEW030 FEW200 19/17 A3012 RMK AO2 SLP198 T01940172
KIAH 030453Z 18003KT 10SM FEW200 19/17 A3012 RMK AO2 SLP198 T01940172
KIAH 030553Z 17003KT 6SM BR FEW250 18/17 A3011 RMK AO2 SLP196 T01830167 10206 20183 402610111 58001
KIAH 030653Z 17003KT 5SM BR FEW004 18/17 A3010 RMK AO2 SLP193 T01830167
KIAH 030753Z 17004KT 3SM BR SCT003 BKN014 19/17 A3009 RMK AO2 SLP189 T01890172
KIAH 030853Z 00000KT 5SM BR FEW003 OVC018 19/18 A3008 RMK AO2 SLP186 T01890178 56010
KIAH 030953Z 00000KT 4SM BR FEW005 OVC018 18/17 A3008 RMK AO2 SLP186 T01830172
KIAH 031053Z 00000KT 5SM BR FEW005 BKN023 19/17 A3008 RMK AO2 SLP186 T01890172
KIAH 031153Z 17003KT 4SM BR BKN031 OVC250 18/17 A3009 RMK AO2 SLP188 T01830172 10189 20183 53002
KIAH 031253Z 17003KT 5SM BR SCT022 BKN038 BKN250 19/17 A3010 RMK AO2 SLP191 T01890172
KIAH 031353Z 16005KT 7SM BKN020 BKN035 BKN250 19/18 A3010 RMK AO2 SLP192 T01940178
KIAH 031453Z 17006KT 10SM SCT020 BKN200 BKN250 20/19 A3011 RMK AO2 SLP194 T02000189 51006
KIAH 031553Z 16006KT 10SM BKN013 BKN200 OVC250 22/18 A3011 RMK AO2 SLP197 T02170183



Page loaded:  16:06 UTC  |   08:06 AM Pacific  |   09:06 AM Mountain  |   10:06 AM Central  |   11:06 AM Eastern

 

ADVISORIES

FORECASTS

FORECASTS

OBSERVATIONS

USER TOOLS

ABOUT US